sensor_id;sensor_type;location;lat;lon;timestamp;P1;durP1;ratioP1;P2;durP2;ratioP2
71963;SDS011;59834;52.124;5.422;2022-08-02T00:00:37;6.00;;;1.15;;
71963;SDS011;59834;52.124;5.422;2022-08-02T00:03:06;4.13;;;1.00;;
71963;SDS011;59834;52.124;5.422;2022-08-02T00:05:34;3.90;;;1.23;;
71963;SDS011;59834;52.124;5.422;2022-08-02T00:08:02;2.78;;;1.15;;
71963;SDS011;59834;52.124;5.422;2022-08-02T00:10:28;3.00;;;0.90;;
71963;SDS011;59834;52.124;5.422;2022-08-02T00:12:56;6.00;;;1.27;;
71963;SDS011;59834;52.124;5.422;2022-08-02T00:15:22;4.03;;;1.48;;
71963;SDS011;59834;52.124;5.422;2022-08-02T00:17:52;6.57;;;1.15;;
71963;SDS011;59834;52.124;5.422;2022-08-02T00:20:19;3.92;;;1.23;;
71963;SDS011;59834;52.124;5.422;2022-08-02T00:22:45;5.27;;;1.23;;
71963;SDS011;59834;52.124;5.422;2022-08-02T00:25:12;4.03;;;1.30;;
71963;SDS011;59834;52.124;5.422;2022-08-02T00:27:42;4.75;;;1.25;;
71963;SDS011;59834;52.124;5.422;2022-08-02T00:30:09;5.00;;;1.25;;
71963;SDS011;59834;52.124;5.422;2022-08-02T00:32:39;4.45;;;1.05;;
71963;SDS011;59834;52.124;5.422;2022-08-02T00:35:09;5.13;;;1.17;;
71963;SDS011;59834;52.124;5.422;2022-08-02T00:37:39;7.75;;;1.23;;
71963;SDS011;59834;52.124;5.422;2022-08-02T00:40:07;5.28;;;1.25;;
71963;SDS011;59834;52.124;5.422;2022-08-02T00:42:35;3.88;;;1.02;;
71963;SDS011;59834;52.124;5.422;2022-08-02T00:45:02;1.63;;;1.05;;
71963;SDS011;59834;52.124;5.422;2022-08-02T00:47:29;7.33;;;1.10;;
71963;SDS011;59834;52.124;5.422;2022-08-02T00:49:57;5.72;;;1.52;;
71963;SDS011;59834;52.124;5.422;2022-08-02T00:52:23;2.15;;;1.10;;
71963;SDS011;59834;52.124;5.422;2022-08-02T00:54:50;7.47;;;1.45;;
71963;SDS011;59834;52.124;5.422;2022-08-02T00:57:18;5.03;;;1.05;;
71963;SDS011;59834;52.124;5.422;2022-08-02T00:59:45;11.30;;;1.47;;
71963;SDS011;59834;52.124;5.422;2022-08-02T01:02:14;12.70;;;1.48;;
71963;SDS011;59834;52.124;5.422;2022-08-02T01:04:42;4.70;;;1.17;;
71963;SDS011;59834;52.124;5.422;2022-08-02T01:07:08;5.57;;;1.40;;
71963;SDS011;59834;52.124;5.422;2022-08-02T01:09:39;4.95;;;1.45;;
71963;SDS011;59834;52.124;5.422;2022-08-02T01:12:07;5.33;;;1.40;;
71963;SDS011;59834;52.124;5.422;2022-08-02T01:14:34;3.08;;;1.20;;
71963;SDS011;59834;52.124;5.422;2022-08-02T01:17:05;7.70;;;1.25;;
71963;SDS011;59834;52.124;5.422;2022-08-02T01:20:11;6.50;;;1.40;;
71963;SDS011;59834;52.124;5.422;2022-08-02T01:22:57;1.40;;;0.90;;
71963;SDS011;59834;52.124;5.422;2022-08-02T01:31:03;2.03;;;0.82;;
71963;SDS011;59834;52.124;5.422;2022-08-02T01:33:40;3.05;;;0.85;;
71963;SDS011;59834;52.124;5.422;2022-08-02T01:36:35;2.63;;;0.90;;
71963;SDS011;59834;52.124;5.422;2022-08-02T01:39:08;2.70;;;1.00;;
71963;SDS011;59834;52.124;5.422;2022-08-02T01:41:52;3.35;;;0.90;;
71963;SDS011;59834;52.124;5.422;2022-08-02T01:44:34;4.30;;;1.63;;
71963;SDS011;59834;52.124;5.422;2022-08-02T01:47:13;2.90;;;1.00;;
71963;SDS011;59834;52.124;5.422;2022-08-02T01:49:47;3.25;;;1.00;;
71963;SDS011;59834;52.124;5.422;2022-08-02T01:52:17;2.57;;;1.27;;
71963;SDS011;59834;52.124;5.422;2022-08-02T01:55:06;4.75;;;1.17;;
71963;SDS011;59834;52.124;5.422;2022-08-02T01:57:54;6.88;;;1.85;;
71963;SDS011;59834;52.124;5.422;2022-08-02T02:00:24;4.93;;;1.60;;
71963;SDS011;59834;52.124;5.422;2022-08-02T02:02:54;3.30;;;1.70;;
71963;SDS011;59834;52.124;5.422;2022-08-02T02:05:25;8.20;;;1.70;;
71963;SDS011;59834;52.124;5.422;2022-08-02T02:07:57;11.23;;;2.97;;
71963;SDS011;59834;52.124;5.422;2022-08-02T02:10:27;6.38;;;1.80;;
71963;SDS011;59834;52.124;5.422;2022-08-02T02:12:57;3.83;;;1.90;;
71963;SDS011;59834;52.124;5.422;2022-08-02T02:15:28;4.97;;;2.05;;
71963;SDS011;59834;52.124;5.422;2022-08-02T02:17:57;7.00;;;1.80;;
71963;SDS011;59834;52.124;5.422;2022-08-02T02:20:39;5.05;;;2.30;;
71963;SDS011;59834;52.124;5.422;2022-08-02T02:23:07;4.13;;;2.03;;
71963;SDS011;59834;52.124;5.422;2022-08-02T02:25:34;5.85;;;2.03;;
71963;SDS011;59834;52.124;5.422;2022-08-02T02:28:12;8.23;;;2.05;;
71963;SDS011;59834;52.124;5.422;2022-08-02T02:30:44;7.37;;;2.00;;
71963;SDS011;59834;52.124;5.422;2022-08-02T02:33:16;3.72;;;1.92;;
71963;SDS011;59834;52.124;5.422;2022-08-02T02:35:45;3.22;;;2.00;;
71963;SDS011;59834;52.124;5.422;2022-08-02T02:38:15;5.72;;;1.98;;
71963;SDS011;59834;52.124;5.422;2022-08-02T02:40:45;4.95;;;1.70;;
71963;SDS011;59834;52.124;5.422;2022-08-02T02:43:13;4.00;;;1.90;;
71963;SDS011;59834;52.124;5.422;2022-08-02T02:45:41;5.38;;;2.33;;
71963;SDS011;59834;52.124;5.422;2022-08-02T02:48:10;7.22;;;2.05;;
71963;SDS011;59834;52.124;5.422;2022-08-02T02:50:40;4.68;;;2.00;;
71963;SDS011;59834;52.124;5.422;2022-08-02T02:53:09;6.47;;;1.83;;
71963;SDS011;59834;52.124;5.422;2022-08-02T02:55:38;6.60;;;1.80;;
71963;SDS011;59834;52.124;5.422;2022-08-02T02:58:26;5.47;;;1.67;;
71963;SDS011;59834;52.124;5.422;2022-08-02T03:00:54;5.85;;;1.52;;
71963;SDS011;59834;52.124;5.422;2022-08-02T03:03:40;3.92;;;1.50;;
71963;SDS011;59834;52.124;5.422;2022-08-02T03:06:07;3.78;;;1.60;;
71963;SDS011;59834;52.124;5.422;2022-08-02T03:08:41;7.27;;;1.50;;
71963;SDS011;59834;52.124;5.422;2022-08-02T03:11:08;3.05;;;1.30;;
71963;SDS011;59834;52.124;5.422;2022-08-02T03:13:36;6.80;;;1.77;;
71963;SDS011;59834;52.124;5.422;2022-08-02T03:16:04;3.58;;;1.23;;
71963;SDS011;59834;52.124;5.422;2022-08-02T03:18:34;3.05;;;1.20;;
71963;SDS011;59834;52.124;5.422;2022-08-02T03:21:04;2.40;;;1.27;;
71963;SDS011;59834;52.124;5.422;2022-08-02T03:23:32;1.70;;;1.00;;
71963;SDS011;59834;52.124;5.422;2022-08-02T03:25:59;3.83;;;1.15;;
71963;SDS011;59834;52.124;5.422;2022-08-02T03:28:26;2.80;;;1.20;;
71963;SDS011;59834;52.124;5.422;2022-08-02T03:30:53;5.90;;;1.33;;
71963;SDS011;59834;52.124;5.422;2022-08-02T03:33:19;3.53;;;1.17;;
71963;SDS011;59834;52.124;5.422;2022-08-02T03:35:49;4.85;;;1.58;;
71963;SDS011;59834;52.124;5.422;2022-08-02T03:38:16;2.85;;;1.42;;
71963;SDS011;59834;52.124;5.422;2022-08-02T03:40:46;5.53;;;1.13;;
71963;SDS011;59834;52.124;5.422;2022-08-02T03:43:14;4.40;;;1.27;;
71963;SDS011;59834;52.124;5.422;2022-08-02T03:45:43;3.93;;;1.53;;
71963;SDS011;59834;52.124;5.422;2022-08-02T03:48:15;4.75;;;1.23;;
71963;SDS011;59834;52.124;5.422;2022-08-02T03:51:00;5.75;;;1.83;;
71963;SDS011;59834;52.124;5.422;2022-08-02T03:53:27;2.80;;;1.15;;
71963;SDS011;59834;52.124;5.422;2022-08-02T03:55:54;7.32;;;1.52;;
71963;SDS011;59834;52.124;5.422;2022-08-02T03:58:21;3.83;;;1.50;;
71963;SDS011;59834;52.124;5.422;2022-08-02T04:00:55;3.35;;;1.27;;
71963;SDS011;59834;52.124;5.422;2022-08-02T04:03:22;3.53;;;1.23;;
71963;SDS011;59834;52.124;5.422;2022-08-02T04:05:50;3.05;;;1.20;;
71963;SDS011;59834;52.124;5.422;2022-08-02T04:08:29;2.33;;;1.35;;
71963;SDS011;59834;52.124;5.422;2022-08-02T04:11:03;3.07;;;1.37;;
71963;SDS011;59834;52.124;5.422;2022-08-02T04:13:49;4.20;;;1.67;;
71963;SDS011;59834;52.124;5.422;2022-08-02T04:16:20;5.43;;;1.80;;
71963;SDS011;59834;52.124;5.422;2022-08-02T04:18:53;4.15;;;1.40;;
71963;SDS011;59834;52.124;5.422;2022-08-02T04:21:27;3.17;;;1.30;;
71963;SDS011;59834;52.124;5.422;2022-08-02T04:24:18;9.07;;;1.80;;
71963;SDS011;59834;52.124;5.422;2022-08-02T04:26:56;7.60;;;2.25;;
71963;SDS011;59834;52.124;5.422;2022-08-02T04:29:43;4.43;;;1.30;;
71963;SDS011;59834;52.124;5.422;2022-08-02T04:32:13;4.30;;;1.10;;
71963;SDS011;59834;52.124;5.422;2022-08-02T04:34:42;4.05;;;1.23;;
71963;SDS011;59834;52.124;5.422;2022-08-02T04:37:25;4.80;;;1.40;;
71963;SDS011;59834;52.124;5.422;2022-08-02T04:39:51;3.05;;;1.60;;
71963;SDS011;59834;52.124;5.422;2022-08-02T04:42:21;6.65;;;1.55;;
71963;SDS011;59834;52.124;5.422;2022-08-02T04:44:50;2.60;;;1.13;;
71963;SDS011;59834;52.124;5.422;2022-08-02T04:47:19;5.05;;;1.40;;
71963;SDS011;59834;52.124;5.422;2022-08-02T04:50:07;3.07;;;1.30;;
71963;SDS011;59834;52.124;5.422;2022-08-02T04:52:34;2.17;;;1.10;;
71963;SDS011;59834;52.124;5.422;2022-08-02T04:55:01;6.35;;;1.20;;
71963;SDS011;59834;52.124;5.422;2022-08-02T04:57:27;2.83;;;1.20;;
71963;SDS011;59834;52.124;5.422;2022-08-02T05:00:18;3.72;;;1.48;;
71963;SDS011;59834;52.124;5.422;2022-08-02T05:02:47;2.77;;;1.10;;
71963;SDS011;59834;52.124;5.422;2022-08-02T05:05:14;7.07;;;1.25;;
71963;SDS011;59834;52.124;5.422;2022-08-02T05:07:41;6.53;;;1.33;;
71963;SDS011;59834;52.124;5.422;2022-08-02T05:10:08;6.93;;;1.08;;
71963;SDS011;59834;52.124;5.422;2022-08-02T05:12:36;3.03;;;1.10;;
71963;SDS011;59834;52.124;5.422;2022-08-02T05:15:03;7.63;;;1.23;;
71963;SDS011;59834;52.124;5.422;2022-08-02T05:17:30;3.80;;;1.08;;
71963;SDS011;59834;52.124;5.422;2022-08-02T05:19:57;4.63;;;1.88;;
71963;SDS011;59834;52.124;5.422;2022-08-02T05:22:24;3.58;;;1.40;;
71963;SDS011;59834;52.124;5.422;2022-08-02T05:24:52;8.65;;;1.98;;
71963;SDS011;59834;52.124;5.422;2022-08-02T05:27:19;2.77;;;0.87;;
71963;SDS011;59834;52.124;5.422;2022-08-02T05:29:46;2.33;;;0.85;;
71963;SDS011;59834;52.124;5.422;2022-08-02T05:32:25;3.90;;;1.63;;
71963;SDS011;59834;52.124;5.422;2022-08-02T05:34:52;4.75;;;0.88;;
71963;SDS011;59834;52.124;5.422;2022-08-02T05:37:19;3.60;;;1.08;;
71963;SDS011;59834;52.124;5.422;2022-08-02T05:39:46;4.03;;;1.27;;
71963;SDS011;59834;52.124;5.422;2022-08-02T05:42:21;5.15;;;1.05;;
71963;SDS011;59834;52.124;5.422;2022-08-02T05:44:48;2.80;;;1.25;;
71963;SDS011;59834;52.124;5.422;2022-08-02T05:47:15;2.50;;;0.80;;
71963;SDS011;59834;52.124;5.422;2022-08-02T05:49:42;3.17;;;1.00;;
71963;SDS011;59834;52.124;5.422;2022-08-02T05:52:13;3.67;;;0.90;;
71963;SDS011;59834;52.124;5.422;2022-08-02T05:54:56;2.90;;;0.80;;
71963;SDS011;59834;52.124;5.422;2022-08-02T06:00:14;5.53;;;1.17;;
71963;SDS011;59834;52.124;5.422;2022-08-02T06:05:44;2.43;;;1.03;;
71963;SDS011;59834;52.124;5.422;2022-08-02T06:08:06;3.95;;;1.02;;
71963;SDS011;59834;52.124;5.422;2022-08-02T06:10:36;3.88;;;1.38;;
71963;SDS011;59834;52.124;5.422;2022-08-02T06:13:06;5.97;;;1.45;;
71963;SDS011;59834;52.124;5.422;2022-08-02T06:15:39;3.45;;;1.58;;
71963;SDS011;59834;52.124;5.422;2022-08-02T06:18:18;2.60;;;1.30;;
71963;SDS011;59834;52.124;5.422;2022-08-02T06:20:54;4.82;;;1.50;;
71963;SDS011;59834;52.124;5.422;2022-08-02T06:23:44;2.28;;;1.20;;
71963;SDS011;59834;52.124;5.422;2022-08-02T06:26:24;3.38;;;1.20;;
71963;SDS011;59834;52.124;5.422;2022-08-02T06:28:52;6.72;;;1.40;;
71963;SDS011;59834;52.124;5.422;2022-08-02T06:31:20;7.97;;;1.50;;
71963;SDS011;59834;52.124;5.422;2022-08-02T06:33:47;7.63;;;2.38;;
71963;SDS011;59834;52.124;5.422;2022-08-02T06:36:30;5.47;;;1.60;;
71963;SDS011;59834;52.124;5.422;2022-08-02T06:41:49;4.95;;;1.60;;
71963;SDS011;59834;52.124;5.422;2022-08-02T06:44:22;5.83;;;1.77;;
71963;SDS011;59834;52.124;5.422;2022-08-02T06:47:08;4.53;;;1.80;;
71963;SDS011;59834;52.124;5.422;2022-08-02T06:49:41;4.57;;;2.00;;
71963;SDS011;59834;52.124;5.422;2022-08-02T06:52:20;5.95;;;1.88;;
71963;SDS011;59834;52.124;5.422;2022-08-02T06:54:55;4.72;;;2.22;;
71963;SDS011;59834;52.124;5.422;2022-08-02T06:57:25;3.80;;;2.43;;
71963;SDS011;59834;52.124;5.422;2022-08-02T06:59:52;7.47;;;2.53;;
71963;SDS011;59834;52.124;5.422;2022-08-02T07:02:20;5.90;;;2.97;;
71963;SDS011;59834;52.124;5.422;2022-08-02T07:04:47;3.40;;;2.53;;
71963;SDS011;59834;52.124;5.422;2022-08-02T07:07:14;4.10;;;2.85;;
71963;SDS011;59834;52.124;5.422;2022-08-02T07:09:41;5.67;;;3.30;;
71963;SDS011;59834;52.124;5.422;2022-08-02T07:12:27;4.40;;;3.00;;
71963;SDS011;59834;52.124;5.422;2022-08-02T07:14:59;6.35;;;2.85;;
71963;SDS011;59834;52.124;5.422;2022-08-02T07:17:26;11.73;;;3.33;;
71963;SDS011;59834;52.124;5.422;2022-08-02T07:19:54;6.28;;;3.45;;
71963;SDS011;59834;52.124;5.422;2022-08-02T07:22:22;4.33;;;3.60;;
71963;SDS011;59834;52.124;5.422;2022-08-02T07:24:53;6.65;;;3.40;;
71963;SDS011;59834;52.124;5.422;2022-08-02T07:27:21;7.53;;;4.07;;
71963;SDS011;59834;52.124;5.422;2022-08-02T07:29:48;8.27;;;4.50;;
71963;SDS011;59834;52.124;5.422;2022-08-02T07:32:20;9.20;;;3.92;;
71963;SDS011;59834;52.124;5.422;2022-08-02T07:34:51;7.57;;;4.10;;
71963;SDS011;59834;52.124;5.422;2022-08-02T07:37:21;5.15;;;4.03;;
71963;SDS011;59834;52.124;5.422;2022-08-02T07:40:09;10.95;;;4.75;;
71963;SDS011;59834;52.124;5.422;2022-08-02T07:42:41;8.95;;;4.47;;
71963;SDS011;59834;52.124;5.422;2022-08-02T07:45:09;7.70;;;4.22;;
71963;SDS011;59834;52.124;5.422;2022-08-02T07:47:38;10.43;;;4.50;;
71963;SDS011;59834;52.124;5.422;2022-08-02T07:50:06;10.25;;;4.35;;
71963;SDS011;59834;52.124;5.422;2022-08-02T07:52:34;7.03;;;4.75;;
71963;SDS011;59834;52.124;5.422;2022-08-02T07:55:01;9.95;;;5.25;;
71963;SDS011;59834;52.124;5.422;2022-08-02T07:57:28;11.20;;;5.93;;
71963;SDS011;59834;52.124;5.422;2022-08-02T07:59:55;11.60;;;5.40;;
71963;SDS011;59834;52.124;5.422;2022-08-02T08:02:21;9.13;;;5.18;;
71963;SDS011;59834;52.124;5.422;2022-08-02T08:04:50;7.90;;;5.80;;
71963;SDS011;59834;52.124;5.422;2022-08-02T08:07:17;8.38;;;5.25;;
71963;SDS011;59834;52.124;5.422;2022-08-02T08:09:45;11.50;;;6.50;;
71963;SDS011;59834;52.124;5.422;2022-08-02T08:12:13;6.00;;;5.27;;
71963;SDS011;59834;52.124;5.422;2022-08-02T08:14:43;12.18;;;5.80;;
71963;SDS011;59834;52.124;5.422;2022-08-02T08:17:10;7.13;;;5.57;;
71963;SDS011;59834;52.124;5.422;2022-08-02T08:19:38;10.60;;;5.63;;
71963;SDS011;59834;52.124;5.422;2022-08-02T08:22:17;11.20;;;6.47;;
71963;SDS011;59834;52.124;5.422;2022-08-02T08:24:47;7.30;;;5.17;;
71963;SDS011;59834;52.124;5.422;2022-08-02T08:27:15;10.32;;;6.63;;
71963;SDS011;59834;52.124;5.422;2022-08-02T08:29:42;7.90;;;4.68;;
71963;SDS011;59834;52.124;5.422;2022-08-02T08:32:09;7.40;;;4.40;;
71963;SDS011;59834;52.124;5.422;2022-08-02T08:34:43;7.97;;;3.60;;
71963;SDS011;59834;52.124;5.422;2022-08-02T08:37:10;10.77;;;4.10;;
71963;SDS011;59834;52.124;5.422;2022-08-02T08:39:42;5.85;;;3.45;;
71963;SDS011;59834;52.124;5.422;2022-08-02T08:42:23;5.15;;;2.80;;
71963;SDS011;59834;52.124;5.422;2022-08-02T08:44:54;6.13;;;2.88;;
71963;SDS011;59834;52.124;5.422;2022-08-02T08:47:23;4.32;;;2.45;;
71963;SDS011;59834;52.124;5.422;2022-08-02T08:50:00;5.30;;;2.77;;
71963;SDS011;59834;52.124;5.422;2022-08-02T08:52:30;3.88;;;2.60;;
71963;SDS011;59834;52.124;5.422;2022-08-02T08:55:03;4.70;;;1.70;;
71963;SDS011;59834;52.124;5.422;2022-08-02T08:57:31;2.95;;;2.03;;
71963;SDS011;59834;52.124;5.422;2022-08-02T09:00:05;3.40;;;1.88;;
71963;SDS011;59834;52.124;5.422;2022-08-02T09:02:33;6.67;;;2.17;;
71963;SDS011;59834;52.124;5.422;2022-08-02T09:05:01;2.92;;;1.90;;
71963;SDS011;59834;52.124;5.422;2022-08-02T09:07:28;3.97;;;2.20;;
71963;SDS011;59834;52.124;5.422;2022-08-02T09:09:55;3.05;;;1.27;;
71963;SDS011;59834;52.124;5.422;2022-08-02T09:12:21;3.55;;;1.70;;
71963;SDS011;59834;52.124;5.422;2022-08-02T09:14:50;2.17;;;1.50;;
71963;SDS011;59834;52.124;5.422;2022-08-02T09:17:17;3.22;;;1.98;;
71963;SDS011;59834;52.124;5.422;2022-08-02T09:19:47;4.40;;;2.33;;
71963;SDS011;59834;52.124;5.422;2022-08-02T09:22:31;3.08;;;1.98;;
71963;SDS011;59834;52.124;5.422;2022-08-02T09:24:57;6.85;;;1.95;;
71963;SDS011;59834;52.124;5.422;2022-08-02T09:27:24;3.73;;;1.87;;
71963;SDS011;59834;52.124;5.422;2022-08-02T09:29:51;7.20;;;2.60;;
71963;SDS011;59834;52.124;5.422;2022-08-02T09:32:45;6.22;;;3.00;;
71963;SDS011;59834;52.124;5.422;2022-08-02T09:35:13;4.63;;;3.60;;
71963;SDS011;59834;52.124;5.422;2022-08-02T09:38:17;4.45;;;3.17;;
71963;SDS011;59834;52.124;5.422;2022-08-02T09:40:43;4.80;;;2.87;;
71963;SDS011;59834;52.124;5.422;2022-08-02T09:43:10;7.45;;;3.30;;
71963;SDS011;59834;52.124;5.422;2022-08-02T09:45:38;5.78;;;3.50;;
71963;SDS011;59834;52.124;5.422;2022-08-02T09:48:05;8.90;;;3.08;;
71963;SDS011;59834;52.124;5.422;2022-08-02T09:50:35;4.22;;;3.17;;
71963;SDS011;59834;52.124;5.422;2022-08-02T09:53:01;9.07;;;3.07;;
71963;SDS011;59834;52.124;5.422;2022-08-02T09:55:29;4.47;;;3.17;;
71963;SDS011;59834;52.124;5.422;2022-08-02T09:57:56;7.00;;;2.97;;
71963;SDS011;59834;52.124;5.422;2022-08-02T10:00:23;5.60;;;3.20;;
71963;SDS011;59834;52.124;5.422;2022-08-02T10:03:10;4.65;;;3.30;;
71963;SDS011;59834;52.124;5.422;2022-08-02T10:05:48;4.27;;;3.13;;
71963;SDS011;59834;52.124;5.422;2022-08-02T10:08:28;5.93;;;3.40;;
71963;SDS011;59834;52.124;5.422;2022-08-02T10:10:58;6.30;;;2.80;;
71963;SDS011;59834;52.124;5.422;2022-08-02T10:13:27;6.05;;;3.53;;
71963;SDS011;59834;52.124;5.422;2022-08-02T10:15:54;6.35;;;3.63;;
71963;SDS011;59834;52.124;5.422;2022-08-02T10:18:21;5.87;;;3.53;;
71963;SDS011;59834;52.124;5.422;2022-08-02T10:21:05;4.10;;;2.90;;
71963;SDS011;59834;52.124;5.422;2022-08-02T10:23:35;3.40;;;2.53;;
71963;SDS011;59834;52.124;5.422;2022-08-02T10:26:05;3.67;;;2.60;;
71963;SDS011;59834;52.124;5.422;2022-08-02T10:28:34;4.13;;;2.58;;
71963;SDS011;59834;52.124;5.422;2022-08-02T10:31:02;7.07;;;3.53;;
71963;SDS011;59834;52.124;5.422;2022-08-02T10:33:33;4.28;;;2.90;;
71963;SDS011;59834;52.124;5.422;2022-08-02T10:36:03;3.90;;;3.50;;
71963;SDS011;59834;52.124;5.422;2022-08-02T10:38:33;3.78;;;3.03;;
71963;SDS011;59834;52.124;5.422;2022-08-02T10:41:01;7.28;;;2.67;;
71963;SDS011;59834;52.124;5.422;2022-08-02T10:54:28;2.38;;;1.30;;
71963;SDS011;59834;52.124;5.422;2022-08-02T10:57:00;3.13;;;1.50;;
71963;SDS011;59834;52.124;5.422;2022-08-02T10:59:30;3.72;;;1.52;;
71963;SDS011;59834;52.124;5.422;2022-08-02T11:02:02;2.08;;;1.38;;
71963;SDS011;59834;52.124;5.422;2022-08-02T11:07:08;3.58;;;1.00;;
71963;SDS011;59834;52.124;5.422;2022-08-02T11:09:40;1.63;;;1.10;;
71963;SDS011;59834;52.124;5.422;2022-08-02T11:12:08;1.23;;;0.93;;
71963;SDS011;59834;52.124;5.422;2022-08-02T11:14:38;2.83;;;1.25;;
71963;SDS011;59834;52.124;5.422;2022-08-02T11:17:13;1.38;;;0.77;;
71963;SDS011;59834;52.124;5.422;2022-08-02T11:22:39;1.63;;;1.00;;
71963;SDS011;59834;52.124;5.422;2022-08-02T11:28:09;1.10;;;0.65;;
71963;SDS011;59834;52.124;5.422;2022-08-02T11:30:39;4.15;;;0.68;;
71963;SDS011;59834;52.124;5.422;2022-08-02T11:33:07;1.83;;;0.93;;
71963;SDS011;59834;52.124;5.422;2022-08-02T11:35:37;2.20;;;1.00;;
71963;SDS011;59834;52.124;5.422;2022-08-02T11:38:14;1.45;;;1.00;;
71963;SDS011;59834;52.124;5.422;2022-08-02T11:40:43;1.10;;;0.55;;
71963;SDS011;59834;52.124;5.422;2022-08-02T11:43:23;1.02;;;0.63;;
71963;SDS011;59834;52.124;5.422;2022-08-02T11:45:52;1.45;;;0.70;;
71963;SDS011;59834;52.124;5.422;2022-08-02T11:51:08;6.25;;;0.80;;
71963;SDS011;59834;52.124;5.422;2022-08-02T11:53:52;3.78;;;0.80;;
71963;SDS011;59834;52.124;5.422;2022-08-02T11:56:30;1.25;;;0.75;;
71963;SDS011;59834;52.124;5.422;2022-08-02T11:59:01;1.45;;;0.60;;
71963;SDS011;59834;52.124;5.422;2022-08-02T12:01:32;2.50;;;0.60;;
71963;SDS011;59834;52.124;5.422;2022-08-02T12:04:09;1.75;;;0.90;;
71963;SDS011;59834;52.124;5.422;2022-08-02T12:06:36;3.70;;;0.85;;
71963;SDS011;59834;52.124;5.422;2022-08-02T12:09:04;3.95;;;1.95;;
71963;SDS011;59834;52.124;5.422;2022-08-02T12:11:43;4.57;;;1.10;;
71963;SDS011;59834;52.124;5.422;2022-08-02T12:14:14;2.07;;;1.33;;
71963;SDS011;59834;52.124;5.422;2022-08-02T12:16:40;3.72;;;1.15;;
71963;SDS011;59834;52.124;5.422;2022-08-02T12:19:25;1.92;;;0.73;;
71963;SDS011;59834;52.124;5.422;2022-08-02T12:24:43;1.13;;;0.68;;
71963;SDS011;59834;52.124;5.422;2022-08-02T12:27:28;1.60;;;0.93;;
71963;SDS011;59834;52.124;5.422;2022-08-02T12:32:35;1.58;;;0.70;;
71963;SDS011;59834;52.124;5.422;2022-08-02T12:35:05;3.58;;;0.70;;
71963;SDS011;59834;52.124;5.422;2022-08-02T12:37:51;1.55;;;1.00;;
71963;SDS011;59834;52.124;5.422;2022-08-02T12:42:59;3.20;;;0.75;;
71963;SDS011;59834;52.124;5.422;2022-08-02T12:45:28;3.85;;;1.42;;
71963;SDS011;59834;52.124;5.422;2022-08-02T12:48:06;2.95;;;1.45;;
71963;SDS011;59834;52.124;5.422;2022-08-02T12:50:33;5.50;;;1.25;;
71963;SDS011;59834;52.124;5.422;2022-08-02T12:55:34;5.50;;;0.75;;
71963;SDS011;59834;52.124;5.422;2022-08-02T12:58:26;6.97;;;0.98;;
71963;SDS011;59834;52.124;5.422;2022-08-02T13:00:53;3.70;;;0.70;;
71963;SDS011;59834;52.124;5.422;2022-08-02T13:03:22;2.95;;;0.70;;
71963;SDS011;59834;52.124;5.422;2022-08-02T13:06:09;3.43;;;0.90;;
71963;SDS011;59834;52.124;5.422;2022-08-02T13:08:56;2.58;;;0.70;;
71963;SDS011;59834;52.124;5.422;2022-08-02T13:11:24;4.22;;;0.80;;
71963;SDS011;59834;52.124;5.422;2022-08-02T13:13:51;2.15;;;0.70;;
71963;SDS011;59834;52.124;5.422;2022-08-02T13:16:20;1.20;;;0.70;;
71963;SDS011;59834;52.124;5.422;2022-08-02T13:18:56;3.27;;;0.50;;
71963;SDS011;59834;52.124;5.422;2022-08-02T13:21:24;5.32;;;0.93;;
71963;SDS011;59834;52.124;5.422;2022-08-02T13:24:13;6.45;;;1.00;;
71963;SDS011;59834;52.124;5.422;2022-08-02T13:27:02;2.72;;;1.30;;
71963;SDS011;59834;52.124;5.422;2022-08-02T13:29:34;1.52;;;0.52;;
71963;SDS011;59834;52.124;5.422;2022-08-02T13:32:06;2.77;;;1.13;;
71963;SDS011;59834;52.124;5.422;2022-08-02T13:34:37;2.72;;;0.70;;
71963;SDS011;59834;52.124;5.422;2022-08-02T13:37:05;5.38;;;0.75;;
71963;SDS011;59834;52.124;5.422;2022-08-02T13:39:32;3.08;;;0.65;;
71963;SDS011;59834;52.124;5.422;2022-08-02T13:41:59;3.25;;;0.70;;
71963;SDS011;59834;52.124;5.422;2022-08-02T13:44:31;1.60;;;0.60;;
71963;SDS011;59834;52.124;5.422;2022-08-02T13:46:58;3.88;;;0.57;;
71963;SDS011;59834;52.124;5.422;2022-08-02T13:49:24;2.28;;;0.50;;
71963;SDS011;59834;52.124;5.422;2022-08-02T13:52:14;3.15;;;0.93;;
71963;SDS011;59834;52.124;5.422;2022-08-02T13:54:42;2.05;;;0.80;;
71963;SDS011;59834;52.124;5.422;2022-08-02T13:57:09;0.80;;;0.50;;
71963;SDS011;59834;52.124;5.422;2022-08-02T13:59:35;3.85;;;0.43;;
71963;SDS011;59834;52.124;5.422;2022-08-02T14:02:22;3.05;;;0.68;;
71963;SDS011;59834;52.124;5.422;2022-08-02T14:04:49;1.80;;;0.60;;
71963;SDS011;59834;52.124;5.422;2022-08-02T14:07:16;1.88;;;0.52;;
71963;SDS011;59834;52.124;5.422;2022-08-02T14:09:42;2.93;;;1.17;;
71963;SDS011;59834;52.124;5.422;2022-08-02T14:12:09;2.20;;;0.73;;
71963;SDS011;59834;52.124;5.422;2022-08-02T14:14:36;4.80;;;0.80;;
71963;SDS011;59834;52.124;5.422;2022-08-02T14:17:03;1.70;;;0.85;;
71963;SDS011;59834;52.124;5.422;2022-08-02T14:19:30;4.05;;;0.80;;
71963;SDS011;59834;52.124;5.422;2022-08-02T14:21:56;3.93;;;0.53;;
71963;SDS011;59834;52.124;5.422;2022-08-02T14:24:37;1.48;;;0.63;;
71963;SDS011;59834;52.124;5.422;2022-08-02T14:27:04;2.47;;;1.10;;
71963;SDS011;59834;52.124;5.422;2022-08-02T14:29:33;1.30;;;0.70;;
71963;SDS011;59834;52.124;5.422;2022-08-02T14:32:07;4.03;;;1.15;;
71963;SDS011;59834;52.124;5.422;2022-08-02T14:34:33;2.63;;;0.90;;
71963;SDS011;59834;52.124;5.422;2022-08-02T14:37:00;3.53;;;0.68;;
71963;SDS011;59834;52.124;5.422;2022-08-02T14:39:29;2.35;;;0.82;;
71963;SDS011;59834;52.124;5.422;2022-08-02T14:42:20;3.50;;;0.50;;
71963;SDS011;59834;52.124;5.422;2022-08-02T14:44:55;2.60;;;0.73;;
71963;SDS011;59834;52.124;5.422;2022-08-02T14:47:28;1.90;;;0.50;;
71963;SDS011;59834;52.124;5.422;2022-08-02T14:49:58;4.95;;;0.98;;
71963;SDS011;59834;52.124;5.422;2022-08-02T14:52:28;5.90;;;0.52;;
71963;SDS011;59834;52.124;5.422;2022-08-02T14:55:00;4.13;;;0.70;;
71963;SDS011;59834;52.124;5.422;2022-08-02T14:57:28;3.40;;;0.80;;
71963;SDS011;59834;52.124;5.422;2022-08-02T14:59:58;1.97;;;1.07;;
71963;SDS011;59834;52.124;5.422;2022-08-02T15:02:29;1.17;;;0.50;;
71963;SDS011;59834;52.124;5.422;2022-08-02T15:04:58;1.80;;;0.60;;
71963;SDS011;59834;52.124;5.422;2022-08-02T15:07:24;2.92;;;0.80;;
71963;SDS011;59834;52.124;5.422;2022-08-02T15:09:51;6.30;;;0.60;;
71963;SDS011;59834;52.124;5.422;2022-08-02T15:12:18;3.50;;;0.70;;
71963;SDS011;59834;52.124;5.422;2022-08-02T15:14:45;4.57;;;1.50;;
71963;SDS011;59834;52.124;5.422;2022-08-02T15:17:12;2.92;;;0.70;;
71963;SDS011;59834;52.124;5.422;2022-08-02T15:19:41;2.33;;;0.60;;
71963;SDS011;59834;52.124;5.422;2022-08-02T15:22:25;3.17;;;0.70;;
71963;SDS011;59834;52.124;5.422;2022-08-02T15:24:54;2.50;;;0.93;;
71963;SDS011;59834;52.124;5.422;2022-08-02T15:27:21;2.40;;;0.80;;
71963;SDS011;59834;52.124;5.422;2022-08-02T15:29:49;4.95;;;1.10;;
71963;SDS011;59834;52.124;5.422;2022-08-02T15:32:19;1.80;;;0.70;;
71963;SDS011;59834;52.124;5.422;2022-08-02T15:34:45;4.85;;;0.80;;
71963;SDS011;59834;52.124;5.422;2022-08-02T15:37:18;5.10;;;0.93;;
71963;SDS011;59834;52.124;5.422;2022-08-02T15:39:44;4.07;;;0.70;;
71963;SDS011;59834;52.124;5.422;2022-08-02T15:42:11;6.28;;;0.70;;
71963;SDS011;59834;52.124;5.422;2022-08-02T15:44:40;3.78;;;0.73;;
71963;SDS011;59834;52.124;5.422;2022-08-02T15:47:07;1.20;;;0.60;;
71963;SDS011;59834;52.124;5.422;2022-08-02T15:49:34;2.70;;;0.80;;
71963;SDS011;59834;52.124;5.422;2022-08-02T15:52:06;2.13;;;0.60;;
71963;SDS011;59834;52.124;5.422;2022-08-02T15:54:33;3.00;;;0.65;;
71963;SDS011;59834;52.124;5.422;2022-08-02T15:57:03;2.25;;;0.93;;
71963;SDS011;59834;52.124;5.422;2022-08-02T15:59:30;3.50;;;0.70;;